createdAt,value
2023-01-19T00:00:40.826Z,9.279750
2023-01-19T00:01:40.771Z,9.279804
2023-01-19T00:02:40.750Z,9.279869
2023-01-19T00:03:40.729Z,9.279754
2023-01-19T00:04:40.705Z,9.279826
2023-01-19T00:05:40.722Z,9.279860
2023-01-19T00:06:40.667Z,9.279921
2023-01-19T00:07:40.645Z,9.279973
2023-01-19T00:08:40.627Z,9.280015
2023-01-19T00:09:40.610Z,9.279918
2023-01-19T00:10:40.616Z,9.279875
2023-01-19T00:11:40.572Z,9.279886
2023-01-19T00:12:40.559Z,9.279905
2023-01-19T00:13:40.531Z,9.279800
2023-01-19T00:14:40.518Z,9.279778
2023-01-19T00:15:40.519Z,9.279748
2023-01-19T00:16:40.476Z,9.279810
2023-01-19T00:17:40.455Z,9.279854
2023-01-19T00:18:40.439Z,9.279760
2023-01-19T00:19:40.427Z,9.279803
2023-01-19T00:20:40.426Z,9.279755
2023-01-19T00:21:40.888Z,9.279805
2023-01-19T00:22:40.358Z,9.279962
2023-01-19T00:23:40.343Z,9.280059
2023-01-19T00:24:40.320Z,9.279875
2023-01-19T00:25:40.330Z,9.279798
2023-01-19T00:26:40.285Z,9.279850
2023-01-19T00:27:40.262Z,9.279627
2023-01-19T00:28:40.245Z,9.279754
2023-01-19T00:29:40.225Z,9.279857
2023-01-19T00:30:40.234Z,9.279799
2023-01-19T00:31:40.199Z,9.279787
2023-01-19T00:32:40.163Z,9.279765
2023-01-19T00:33:40.142Z,9.279764
2023-01-19T00:34:40.127Z,9.279721
2023-01-19T00:35:40.140Z,9.279647
2023-01-19T00:36:40.078Z,9.279725
2023-01-19T00:37:40.065Z,9.279781
2023-01-19T00:38:40.076Z,9.279831
2023-01-19T00:39:40.032Z,9.279817
2023-01-19T00:40:40.037Z,9.279872
2023-01-19T00:41:39.978Z,9.279959
2023-01-19T00:42:41.010Z,9.279841
2023-01-19T00:43:39.944Z,9.279839
2023-01-19T00:44:39.919Z,9.279793
2023-01-19T00:45:40.041Z,9.279804
2023-01-19T00:46:39.881Z,9.279725
2023-01-19T00:47:39.868Z,9.279852
2023-01-19T00:48:39.841Z,9.279925
2023-01-19T00:49:39.827Z,9.279937
2023-01-19T00:50:39.827Z,9.279992
2023-01-19T00:51:39.778Z,9.279885
2023-01-19T00:52:39.761Z,9.280085
2023-01-19T00:53:39.740Z,9.279916
2023-01-19T00:54:39.718Z,9.280174
2023-01-19T00:55:39.724Z,9.280163
2023-01-19T00:56:39.674Z,9.279926
2023-01-19T00:57:39.656Z,9.279910
2023-01-19T00:58:40.376Z,9.279907
2023-01-19T00:59:39.615Z,9.279939
2023-01-19T01:00:39.632Z,9.279868
2023-01-19T01:01:45.002Z,9.279893
2023-01-19T01:02:40.717Z,9.279956
2023-01-19T01:03:39.563Z,9.279774
2023-01-19T01:04:39.519Z,9.279842
2023-01-19T01:05:39.539Z,9.279864
2023-01-19T01:06:39.485Z,9.279913
2023-01-19T01:07:39.466Z,9.279968
2023-01-19T01:08:39.463Z,9.279899
2023-01-19T01:09:39.425Z,9.279863
2023-01-19T01:10:39.397Z,9.279850
2023-01-19T01:11:39.379Z,9.279998
2023-01-19T01:12:39.358Z,9.279954
2023-01-19T01:13:39.359Z,9.280003
2023-01-19T01:14:39.319Z,9.279917
2023-01-19T01:15:39.293Z,9.279826
2023-01-19T01:16:40.366Z,9.279896
2023-01-19T01:17:40.260Z,9.279959
2023-01-19T01:18:39.239Z,9.280054
2023-01-19T01:19:39.215Z,9.279879
2023-01-19T01:20:39.199Z,9.279843
2023-01-19T01:21:39.209Z,9.279845
2023-01-19T01:22:39.205Z,9.279997
2023-01-19T01:23:39.151Z,9.279911
2023-01-19T01:24:39.121Z,9.279958
2023-01-19T01:25:39.100Z,9.279983
2023-01-19T01:26:39.105Z,9.279944
2023-01-19T01:27:39.062Z,9.280042
2023-01-19T01:28:39.054Z,9.280085
2023-01-19T01:29:39.023Z,9.279989
2023-01-19T01:30:39.000Z,9.279924
2023-01-19T01:31:39.084Z,9.279946
2023-01-19T01:32:38.964Z,9.280010
2023-01-19T01:33:40.737Z,9.279982
2023-01-19T01:34:38.926Z,9.279879
2023-01-19T01:35:38.903Z,9.279874
2023-01-19T01:36:38.911Z,9.279938
2023-01-19T01:37:38.869Z,9.279966
2023-01-19T01:38:38.840Z,9.279932
2023-01-19T01:39:38.829Z,9.279868
2023-01-19T01:40:38.798Z,9.279902
2023-01-19T01:41:38.805Z,9.279964
2023-01-19T01:42:38.763Z,9.279978
2023-01-19T01:43:38.740Z,9.280015
2023-01-19T01:44:38.722Z,9.279882
2023-01-19T01:45:38.750Z,9.279808
2023-01-19T01:46:38.707Z,9.279858
2023-01-19T01:47:38.668Z,9.279849
2023-01-19T01:48:38.643Z,9.279889
2023-01-19T01:49:38.623Z,9.279909
2023-01-19T01:50:38.608Z,9.279922
2023-01-19T01:51:38.652Z,9.279899
2023-01-19T01:52:38.568Z,9.279873
2023-01-19T01:53:38.555Z,9.279992
2023-01-19T01:54:38.542Z,9.280096
2023-01-19T01:55:38.518Z,9.279876
2023-01-19T01:56:38.537Z,9.279829
2023-01-19T01:57:38.475Z,9.279819
2023-01-19T01:58:38.457Z,9.279900
2023-01-19T01:59:38.438Z,9.279841
2023-01-19T02:00:38.420Z,9.279901
2023-01-19T02:01:38.480Z,9.279924
2023-01-19T02:02:38.382Z,9.279916
2023-01-19T02:03:38.390Z,9.279788
2023-01-19T02:04:38.344Z,9.279942
2023-01-19T02:05:38.331Z,9.279978
2023-01-19T02:06:38.332Z,9.279999
2023-01-19T02:07:38.286Z,9.279909
2023-01-19T02:08:38.267Z,9.279930
2023-01-19T02:09:38.249Z,9.279751
2023-01-19T02:10:38.231Z,9.279797
2023-01-19T02:11:38.238Z,9.279943
2023-01-19T02:12:38.201Z,9.279835
2023-01-19T02:13:38.177Z,9.279914
2023-01-19T02:14:38.162Z,9.279879
2023-01-19T02:15:38.136Z,9.279956
2023-01-19T02:16:38.157Z,9.279919
2023-01-19T02:17:38.098Z,9.279937
2023-01-19T02:18:38.088Z,9.279949
2023-01-19T02:19:38.075Z,9.279945
2023-01-19T02:20:38.040Z,9.279902
2023-01-19T02:21:38.050Z,9.279987
2023-01-19T02:22:37.999Z,9.279979
2023-01-19T02:23:37.992Z,9.279929
2023-01-19T02:24:37.960Z,9.279996
2023-01-19T02:25:37.952Z,9.279989
2023-01-19T02:26:37.950Z,9.279879
2023-01-19T02:27:37.906Z,9.279963
2023-01-19T02:28:37.879Z,9.280036
2023-01-19T02:29:37.891Z,9.279855
2023-01-19T02:30:37.860Z,9.279797
2023-01-19T02:31:37.854Z,9.279994
2023-01-19T02:32:37.805Z,9.280031
2023-01-19T02:33:37.781Z,9.280068
2023-01-19T02:34:38.773Z,9.280058
2023-01-19T02:35:37.747Z,9.279996
2023-01-19T02:36:37.747Z,9.279888
2023-01-19T02:37:37.711Z,9.280037
2023-01-19T02:38:37.691Z,9.279976
2023-01-19T02:39:37.671Z,9.280062
2023-01-19T02:40:37.648Z,9.280007
2023-01-19T02:41:37.651Z,9.279994
2023-01-19T02:42:37.617Z,9.279907
2023-01-19T02:43:37.592Z,9.279877
2023-01-19T02:44:37.569Z,9.279909
2023-01-19T02:45:37.551Z,9.279886
2023-01-19T02:46:37.568Z,9.279931
2023-01-19T02:47:37.506Z,9.279897
2023-01-19T02:48:37.486Z,9.279993
2023-01-19T02:49:37.469Z,9.279984
2023-01-19T02:50:37.460Z,9.279849
2023-01-19T02:51:37.450Z,9.279952
2023-01-19T02:52:37.406Z,9.279921
2023-01-19T02:53:37.392Z,9.279940
2023-01-19T02:54:37.367Z,9.279965
2023-01-19T02:55:37.344Z,9.280116
2023-01-19T02:56:37.345Z,9.280073
2023-01-19T02:57:37.303Z,9.280004
2023-01-19T02:58:37.285Z,9.280013
2023-01-19T02:59:37.268Z,9.280008
2023-01-19T03:00:37.247Z,9.280032
2023-01-19T03:01:37.396Z,9.280073
2023-01-19T03:02:37.325Z,9.280036
2023-01-19T03:03:37.180Z,9.279970
2023-01-19T03:04:37.165Z,9.279973
2023-01-19T03:05:37.145Z,9.279976
2023-01-19T03:06:37.148Z,9.279933
2023-01-19T03:07:37.094Z,9.280096
2023-01-19T03:08:38.079Z,9.280164
2023-01-19T03:09:37.062Z,9.280091
2023-01-19T03:10:37.044Z,9.280135
2023-01-19T03:11:37.045Z,9.280021
2023-01-19T03:12:37.000Z,9.280132
2023-01-19T03:13:36.990Z,9.280000
2023-01-19T03:14:36.974Z,9.279982
2023-01-19T03:15:36.956Z,9.279950
2023-01-19T03:16:36.974Z,9.280110
2023-01-19T03:17:36.900Z,9.279995
2023-01-19T03:18:36.884Z,9.279990
2023-01-19T03:19:36.869Z,9.279983
2023-01-19T03:20:36.841Z,9.279945
2023-01-19T03:21:36.860Z,9.280103
2023-01-19T03:22:36.797Z,9.279996
2023-01-19T03:23:36.783Z,9.279984
2023-01-19T03:24:37.753Z,9.280030
2023-01-19T03:25:37.738Z,9.280078
2023-01-19T03:26:36.745Z,9.280063
2023-01-19T03:27:36.701Z,9.279965
2023-01-19T03:28:36.677Z,9.280048
2023-01-19T03:29:36.680Z,9.279946
2023-01-19T03:30:36.645Z,9.280011
2023-01-19T03:31:36.647Z,9.279943
2023-01-19T03:32:36.598Z,9.280115
2023-01-19T03:33:36.583Z,9.279994
2023-01-19T03:34:36.557Z,9.280024
2023-01-19T03:35:36.540Z,9.279998
2023-01-19T03:36:36.544Z,9.279923
2023-01-19T03:37:36.494Z,9.279913
2023-01-19T03:38:36.481Z,9.280094
2023-01-19T03:39:36.457Z,9.279810
2023-01-19T03:40:36.440Z,9.279839
2023-01-19T03:41:36.444Z,9.279757
2023-01-19T03:42:36.398Z,9.279778
2023-01-19T03:43:36.374Z,9.279944
2023-01-19T03:44:36.355Z,9.279931
2023-01-19T03:45:36.363Z,9.279946
2023-01-19T03:46:36.348Z,9.279935
2023-01-19T03:47:36.310Z,9.279915
2023-01-19T03:48:36.278Z,9.279844
2023-01-19T03:49:36.256Z,9.279967
2023-01-19T03:50:36.267Z,9.280053
2023-01-19T03:51:36.253Z,9.279833
2023-01-19T03:52:36.195Z,9.279752
2023-01-19T03:53:36.176Z,9.279617
2023-01-19T03:54:36.162Z,9.279567
2023-01-19T03:55:36.135Z,9.279744
2023-01-19T03:56:36.114Z,9.279737
2023-01-19T03:57:36.121Z,9.279901
2023-01-19T03:58:36.075Z,9.279949
2023-01-19T03:59:36.058Z,9.279883
2023-01-19T04:00:36.039Z,9.279813
2023-01-19T04:01:36.088Z,9.279899
2023-01-19T04:02:36.042Z,9.279951
2023-01-19T04:03:35.976Z,9.280021
2023-01-19T04:04:35.964Z,9.280132
2023-01-19T04:05:35.938Z,9.279882
2023-01-19T04:06:35.915Z,9.279964
2023-01-19T04:07:35.924Z,9.279888
2023-01-19T04:08:35.875Z,9.279887
2023-01-19T04:09:35.856Z,9.280019
2023-01-19T04:10:35.838Z,9.280041
2023-01-19T04:11:35.815Z,9.279918
2023-01-19T04:12:35.816Z,9.279955
2023-01-19T04:13:35.777Z,9.279910
2023-01-19T04:14:35.759Z,9.279840
2023-01-19T04:15:35.799Z,9.279949
2023-01-19T04:16:35.720Z,9.280015
2023-01-19T04:17:35.751Z,9.279932
2023-01-19T04:18:35.681Z,9.280034
2023-01-19T04:19:35.650Z,9.279914
2023-01-19T04:20:36.646Z,9.279871
2023-01-19T04:21:35.623Z,9.279883
2023-01-19T04:22:35.624Z,9.279782
2023-01-19T04:23:35.581Z,9.279795
2023-01-19T04:24:35.563Z,9.279902
2023-01-19T04:25:37.887Z,9.279976
2023-01-19T04:26:35.522Z,9.280010
2023-01-19T04:27:35.525Z,9.279984
2023-01-19T04:28:35.481Z,9.279994
2023-01-19T04:29:35.474Z,9.279934
2023-01-19T04:30:35.449Z,9.279885
2023-01-19T04:31:35.468Z,9.279981
2023-01-19T04:32:35.430Z,9.279954
2023-01-19T04:33:35.413Z,9.279907
2023-01-19T04:34:35.372Z,9.279830
2023-01-19T04:35:35.346Z,9.279769
2023-01-19T04:36:35.324Z,9.279954
2023-01-19T04:37:35.333Z,9.279990
2023-01-19T04:38:35.280Z,9.279967
2023-01-19T04:39:35.266Z,9.279980
2023-01-19T04:40:35.243Z,9.279968
2023-01-19T04:41:35.224Z,9.279984
2023-01-19T04:42:35.232Z,9.279909
2023-01-19T04:43:35.186Z,9.279948
2023-01-19T04:44:35.167Z,9.280006
2023-01-19T04:45:35.145Z,9.279888
2023-01-19T04:46:35.203Z,9.279988
2023-01-19T04:47:35.135Z,9.279856
2023-01-19T04:48:35.716Z,9.279875
2023-01-19T04:49:35.085Z,9.279883
2023-01-19T04:50:35.045Z,9.279893
2023-01-19T04:51:35.030Z,9.279959
2023-01-19T04:52:35.160Z,9.279965
2023-01-19T04:53:34.989Z,9.279959
2023-01-19T04:54:35.004Z,9.279928
2023-01-19T04:55:34.951Z,9.279979
2023-01-19T04:56:34.934Z,9.280000
2023-01-19T04:57:34.953Z,9.279976
2023-01-19T04:58:34.894Z,9.279931
2023-01-19T04:59:34.874Z,9.279823
2023-01-19T05:00:34.857Z,9.279871
2023-01-19T05:01:34.920Z,9.279881
2023-01-19T05:02:34.953Z,9.279875
2023-01-19T05:03:34.796Z,9.279997
2023-01-19T05:04:34.780Z,9.279999
2023-01-19T05:05:34.756Z,9.279930
2023-01-19T05:06:34.757Z,9.279977
2023-01-19T05:07:34.742Z,9.279890
2023-01-19T05:08:34.701Z,9.279868
2023-01-19T05:09:34.679Z,9.279818
2023-01-19T05:10:34.663Z,9.279933
2023-01-19T05:11:34.646Z,9.279997
2023-01-19T05:12:34.651Z,9.279969
2023-01-19T05:13:34.606Z,9.279984
2023-01-19T05:14:34.585Z,9.279943
2023-01-19T05:15:34.569Z,9.279886
2023-01-19T05:16:34.568Z,9.279945
2023-01-19T05:17:34.581Z,9.279984
2023-01-19T05:18:34.510Z,9.280021
2023-01-19T05:19:34.490Z,9.280085
2023-01-19T05:20:34.472Z,9.279997
2023-01-19T05:21:34.453Z,9.280032
2023-01-19T05:22:34.457Z,9.280030
2023-01-19T05:23:34.412Z,9.279996
2023-01-19T05:24:34.397Z,9.279943
2023-01-19T05:25:34.377Z,9.280151
2023-01-19T05:26:34.355Z,9.280072
2023-01-19T05:27:34.359Z,9.279988
2023-01-19T05:28:34.314Z,9.280048
2023-01-19T05:29:34.291Z,9.279948
2023-01-19T05:30:34.336Z,9.279881
2023-01-19T05:31:34.340Z,9.280094
2023-01-19T05:32:34.259Z,9.279942
2023-01-19T05:33:34.214Z,9.279880
2023-01-19T05:34:34.192Z,9.279910
2023-01-19T05:35:36.202Z,9.279902
2023-01-19T05:36:35.155Z,9.280051
2023-01-19T05:37:34.169Z,9.279954
2023-01-19T05:38:35.559Z,9.279942
2023-01-19T05:39:35.099Z,9.279983
2023-01-19T05:40:34.082Z,9.279938
2023-01-19T05:41:34.075Z,9.279904
2023-01-19T05:42:34.074Z,9.279966
2023-01-19T05:43:34.027Z,9.279964
2023-01-19T05:44:34.006Z,9.279934
2023-01-19T05:45:34.035Z,9.279987
2023-01-19T05:46:34.019Z,9.279969
2023-01-19T05:47:33.964Z,9.279943
2023-01-19T05:48:33.930Z,9.280014
2023-01-19T05:49:33.900Z,9.279990
2023-01-19T05:50:33.884Z,9.280006
2023-01-19T05:51:33.858Z,9.280011
2023-01-19T05:52:33.868Z,9.280006
2023-01-19T05:53:33.821Z,9.280025
2023-01-19T05:54:33.816Z,9.280020
2023-01-19T05:55:33.786Z,9.279988
2023-01-19T05:56:33.776Z,9.279985
2023-01-19T05:57:33.791Z,9.280016
2023-01-19T05:58:33.729Z,9.280128
2023-01-19T05:59:33.717Z,9.280099
2023-01-19T06:00:33.691Z,9.280078
2023-01-19T06:01:33.677Z,9.280077
2023-01-19T06:02:33.685Z,9.279999
2023-01-19T06:03:33.685Z,9.279943
2023-01-19T06:04:33.626Z,9.279898
2023-01-19T06:05:33.600Z,9.279972
2023-01-19T06:06:33.574Z,9.279947
2023-01-19T06:07:33.586Z,9.280017
2023-01-19T06:08:33.542Z,9.280014
2023-01-19T06:09:33.514Z,9.279960
2023-01-19T06:10:33.496Z,9.279988
2023-01-19T06:11:33.476Z,9.280027
2023-01-19T06:12:33.504Z,9.279992
2023-01-19T06:13:33.441Z,9.279948
2023-01-19T06:14:33.419Z,9.279891
2023-01-19T06:15:33.403Z,9.279966
2023-01-19T06:16:33.424Z,9.279798
2023-01-19T06:17:33.385Z,9.279827
2023-01-19T06:18:33.342Z,9.279923
2023-01-19T06:19:33.312Z,9.280042
2023-01-19T06:20:34.300Z,9.280081
2023-01-19T06:21:33.282Z,9.279989
2023-01-19T06:22:33.287Z,9.280026
2023-01-19T06:23:33.238Z,9.280036
2023-01-19T06:24:34.226Z,9.279924
2023-01-19T06:25:33.220Z,9.279736
2023-01-19T06:26:33.193Z,9.279866
2023-01-19T06:27:33.194Z,9.279899
2023-01-19T06:28:33.144Z,9.279945
2023-01-19T06:29:33.127Z,9.279965
2023-01-19T06:30:33.130Z,9.280020
2023-01-19T06:31:33.123Z,9.280085
2023-01-19T06:32:33.100Z,9.279945
2023-01-19T06:33:33.045Z,9.279887
2023-01-19T06:34:33.031Z,9.279845
2023-01-19T06:35:33.009Z,9.279916
2023-01-19T06:36:33.009Z,9.279952
2023-01-19T06:37:32.994Z,9.279977
2023-01-19T06:38:32.956Z,9.280080
2023-01-19T06:39:32.929Z,9.279951
2023-01-19T06:40:32.912Z,9.279910
2023-01-19T06:41:32.896Z,9.279995
2023-01-19T06:42:32.901Z,9.279913
2023-01-19T06:43:32.858Z,9.279923
2023-01-19T06:44:32.848Z,9.279911
2023-01-19T06:45:32.859Z,9.279943
2023-01-19T06:46:32.789Z,9.280084
2023-01-19T06:47:32.801Z,9.279967
2023-01-19T06:48:32.769Z,9.279852
2023-01-19T06:49:32.732Z,9.279929
2023-01-19T06:50:32.721Z,9.279989
2023-01-19T06:51:32.708Z,9.279900
2023-01-19T06:52:32.824Z,9.279850
2023-01-19T06:53:32.652Z,9.279860
2023-01-19T06:54:32.632Z,9.279943
2023-01-19T06:55:32.611Z,9.279986
2023-01-19T06:56:32.599Z,9.279961
2023-01-19T06:57:32.603Z,9.279891
2023-01-19T06:58:32.556Z,9.279852
2023-01-19T06:59:32.545Z,9.279731
2023-01-19T07:00:32.521Z,9.279790
2023-01-19T07:01:32.647Z,9.279780
2023-01-19T07:02:32.655Z,9.279831
2023-01-19T07:03:32.486Z,9.279860
2023-01-19T07:04:32.432Z,9.279872
2023-01-19T07:05:32.433Z,9.279929
2023-01-19T07:06:32.396Z,9.279901
2023-01-19T07:07:32.402Z,9.279867
2023-01-19T07:08:32.356Z,9.279867
2023-01-19T07:09:32.332Z,9.279877
2023-01-19T07:11:25.108Z,9.279852
2023-01-19T07:11:33.359Z,9.279784
2023-01-19T07:12:32.302Z,9.279892
2023-01-19T07:13:33.164Z,9.280003
2023-01-19T07:14:32.227Z,9.279951
2023-01-19T07:15:32.208Z,9.279964
2023-01-19T07:16:32.213Z,9.279946
2023-01-19T07:17:32.197Z,9.279889
2023-01-19T07:18:32.151Z,9.279879
2023-01-19T07:19:32.131Z,9.279748
2023-01-19T07:20:32.132Z,9.279826
2023-01-19T07:21:32.095Z,9.279865
2023-01-19T07:22:32.112Z,9.279870
2023-01-19T07:23:32.080Z,9.279845
2023-01-19T07:24:32.035Z,9.279885
2023-01-19T07:25:32.029Z,9.279848
2023-01-19T07:26:31.992Z,9.279799
2023-01-19T07:27:31.977Z,9.279824
2023-01-19T07:28:31.975Z,9.279835
2023-01-19T07:29:31.938Z,9.279765
2023-01-19T07:30:31.944Z,9.279751
2023-01-19T07:31:32.010Z,9.279851
2023-01-19T07:32:31.886Z,9.279870
2023-01-19T07:33:31.882Z,9.279834
2023-01-19T07:34:31.837Z,9.279822
2023-01-19T07:35:31.815Z,9.279912
2023-01-19T07:36:31.810Z,9.279918
2023-01-19T07:37:31.777Z,9.279723
2023-01-19T07:38:31.779Z,9.279789
2023-01-19T07:39:31.735Z,9.279870
2023-01-19T07:40:31.713Z,9.279886
2023-01-19T07:41:31.694Z,9.279804
2023-01-19T07:42:31.675Z,9.279786
2023-01-19T07:43:31.685Z,9.279782
2023-01-19T07:44:31.637Z,9.279750
2023-01-19T07:45:31.615Z,9.279871
2023-01-19T07:46:31.596Z,9.279958
2023-01-19T07:47:31.563Z,9.279911
2023-01-19T07:48:32.585Z,9.279902
2023-01-19T07:49:31.548Z,9.279908
2023-01-19T07:50:31.521Z,9.279930
2023-01-19T07:51:31.492Z,9.280016
2023-01-19T07:52:32.486Z,9.280024
2023-01-19T07:53:31.491Z,9.279966
2023-01-19T07:54:31.446Z,9.279964
2023-01-19T07:55:31.427Z,9.279922
2023-01-19T07:56:32.829Z,9.279933
2023-01-19T07:57:32.418Z,9.279863
2023-01-19T07:58:31.401Z,9.279974
2023-01-19T07:59:31.356Z,9.279983
2023-01-19T08:00:31.343Z,9.279948
2023-01-19T08:01:31.546Z,9.280035
2023-01-19T08:02:31.351Z,9.279897
2023-01-19T08:03:31.305Z,9.279923
2023-01-19T08:04:31.286Z,9.279962
2023-01-19T08:05:31.245Z,9.279881
2023-01-19T08:06:31.229Z,9.279819
2023-01-19T08:07:31.208Z,9.279821
2023-01-19T08:08:31.218Z,9.279937
2023-01-19T08:09:31.173Z,9.279921
2023-01-19T08:10:31.153Z,9.279930
2023-01-19T08:11:31.144Z,9.279918
2023-01-19T08:12:31.120Z,9.279846
2023-01-19T08:13:31.133Z,9.279975
2023-01-19T08:14:31.081Z,9.279878
2023-01-19T08:15:31.136Z,9.279937
2023-01-19T08:16:31.051Z,9.279977
2023-01-19T08:17:31.029Z,9.279933
2023-01-19T08:18:31.053Z,9.279987
2023-01-19T08:19:30.987Z,9.279926
2023-01-19T08:20:30.992Z,9.279926
2023-01-19T08:21:30.951Z,9.279863
2023-01-19T08:22:30.934Z,9.279938
2023-01-19T08:23:30.944Z,9.279919
2023-01-19T08:24:30.896Z,9.279861
2023-01-19T08:25:30.879Z,9.279887
2023-01-19T08:26:30.862Z,9.279979
2023-01-19T08:27:30.842Z,9.279914
2023-01-19T08:28:30.840Z,9.279810
2023-01-19T08:29:30.817Z,9.279720
2023-01-19T08:30:30.781Z,9.279651
2023-01-19T08:31:30.847Z,9.279643
2023-01-19T08:32:30.764Z,9.279679
2023-01-19T08:33:30.750Z,9.279858
2023-01-19T08:34:30.696Z,9.279898
2023-01-19T08:35:30.676Z,9.279855
2023-01-19T08:36:30.684Z,9.279883
2023-01-19T08:37:31.818Z,9.279889
2023-01-19T08:38:30.647Z,9.279856
2023-01-19T08:39:30.603Z,9.279815
2023-01-19T08:40:30.589Z,9.279902
2023-01-19T08:41:30.565Z,9.279840
2023-01-19T08:42:30.550Z,9.279850
2023-01-19T08:43:30.564Z,9.279861
2023-01-19T08:44:30.528Z,9.279930
2023-01-19T08:45:30.492Z,9.279953
2023-01-19T08:46:30.479Z,9.279879
2023-01-19T08:47:30.486Z,9.279924
2023-01-19T08:48:30.462Z,9.279894
2023-01-19T08:49:30.431Z,9.279991
2023-01-19T08:50:30.426Z,9.279990
2023-01-19T08:51:30.390Z,9.279953
2023-01-19T08:52:30.372Z,9.280003
2023-01-19T08:53:30.371Z,9.279872
2023-01-19T08:54:30.356Z,9.279889
2023-01-19T08:55:30.336Z,9.279845
2023-01-19T08:56:30.294Z,9.279905
2023-01-19T08:57:30.274Z,9.279846
2023-01-19T08:58:30.282Z,9.279911
2023-01-19T08:59:30.240Z,9.279920
2023-01-19T09:00:30.216Z,9.279942
2023-01-19T09:01:30.281Z,9.279840
2023-01-19T09:02:30.235Z,9.279995
2023-01-19T09:03:30.191Z,9.279975
2023-01-19T09:04:30.152Z,9.279984
2023-01-19T09:05:30.128Z,9.279877
2023-01-19T09:06:30.107Z,9.279849
2023-01-19T09:07:32.438Z,9.279921
2023-01-19T09:08:30.086Z,9.279981
2023-01-19T09:09:31.061Z,9.279905
2023-01-19T09:10:30.031Z,9.279812
2023-01-19T09:11:30.015Z,9.279802
2023-01-19T09:12:29.992Z,9.279828
2023-01-19T09:13:30.006Z,9.279919
2023-01-19T09:14:29.963Z,9.279850
2023-01-19T09:15:29.948Z,9.279881
2023-01-19T09:16:29.928Z,9.279831
2023-01-19T09:17:29.902Z,9.279814
2023-01-19T09:18:29.914Z,9.279805
2023-01-19T09:19:29.872Z,9.279801
2023-01-19T09:20:29.853Z,9.279778
2023-01-19T09:21:29.839Z,9.279844
2023-01-19T09:22:29.825Z,9.279901
2023-01-19T09:23:29.823Z,9.279916
2023-01-19T09:24:29.787Z,9.279891
2023-01-19T09:25:29.785Z,9.279832
2023-01-19T09:26:31.649Z,9.279872
2023-01-19T09:27:29.813Z,9.279799
2023-01-19T09:28:29.749Z,9.279821
2023-01-19T09:29:29.689Z,9.279860
2023-01-19T09:30:29.669Z,9.279791
2023-01-19T09:31:29.800Z,9.279729
2023-01-19T09:32:29.630Z,9.279787
2023-01-19T09:33:29.642Z,9.279847
2023-01-19T09:34:29.598Z,9.279857
2023-01-19T09:35:29.588Z,9.279772
2023-01-19T09:36:29.556Z,9.279751
2023-01-19T09:37:29.542Z,9.279696
2023-01-19T09:38:29.578Z,9.279818
2023-01-19T09:39:29.535Z,9.279919
2023-01-19T09:40:29.497Z,9.279813
2023-01-19T09:41:29.468Z,9.279888
2023-01-19T09:42:29.453Z,9.279924
2023-01-19T09:43:30.265Z,9.279803
2023-01-19T09:44:29.414Z,9.279871
2023-01-19T09:45:29.392Z,9.279877
2023-01-19T09:46:29.417Z,9.279787
2023-01-19T09:47:29.353Z,9.279865
2023-01-19T09:48:29.363Z,9.279913
2023-01-19T09:49:29.317Z,9.279920
2023-01-19T09:50:29.299Z,9.279808
2023-01-19T09:51:29.278Z,9.280073
2023-01-19T09:52:29.263Z,9.279798
2023-01-19T09:53:29.270Z,9.279753
2023-01-19T09:54:29.230Z,9.279677
2023-01-19T09:55:29.208Z,9.279789
2023-01-19T09:56:29.196Z,9.279912
2023-01-19T09:57:29.174Z,9.279905
2023-01-19T09:58:30.767Z,9.279798
2023-01-19T09:59:29.136Z,9.279837
2023-01-19T10:00:29.168Z,9.279960
2023-01-19T10:01:29.226Z,9.279911
2023-01-19T10:02:29.094Z,9.279866
2023-01-19T10:03:29.154Z,9.279793
2023-01-19T10:04:29.054Z,9.279780
2023-01-19T10:05:29.023Z,9.279863
2023-01-19T10:06:29.005Z,9.279918
2023-01-19T10:07:28.987Z,9.279954
2023-01-19T10:08:28.994Z,9.279992
2023-01-19T10:09:28.955Z,9.279951
2023-01-19T10:10:28.931Z,9.280045
2023-01-19T10:11:34.523Z,9.280002
2023-01-19T10:12:30.891Z,9.279960
2023-01-19T10:13:28.925Z,9.280029
2023-01-19T10:14:28.889Z,9.279975
2023-01-19T10:15:28.849Z,9.279965
2023-01-19T10:16:28.859Z,9.279938
2023-01-19T10:17:28.800Z,9.279954
2023-01-19T10:18:28.814Z,9.280013
2023-01-19T10:19:28.772Z,9.280030
2023-01-19T10:20:28.747Z,9.279927
2023-01-19T10:21:28.727Z,9.279980
2023-01-19T10:22:28.739Z,9.279931
2023-01-19T10:23:28.690Z,9.279917
2023-01-19T10:24:28.715Z,9.280079
2023-01-19T10:25:28.667Z,9.280088
2023-01-19T10:26:28.650Z,9.280142
2023-01-19T10:27:28.620Z,9.280122
2023-01-19T10:28:28.599Z,9.279950
2023-01-19T10:29:28.619Z,9.279962
2023-01-19T10:30:29.582Z,9.279960
2023-01-19T10:31:28.668Z,9.279935
2023-01-19T10:32:28.526Z,9.279983
2023-01-19T10:33:28.552Z,9.279965
2023-01-19T10:34:28.513Z,9.279915
2023-01-19T10:35:28.667Z,9.280104
2023-01-19T10:36:28.471Z,9.280002
2023-01-19T10:37:28.570Z,9.280046
2023-01-19T10:38:28.524Z,9.280062
2023-01-19T10:39:28.485Z,9.280039
2023-01-19T10:40:28.494Z,9.280045
2023-01-19T10:41:28.462Z,9.280066
2023-01-19T10:42:28.368Z,9.280024
2023-01-19T10:43:28.415Z,9.280115
2023-01-19T10:44:28.354Z,9.280029
2023-01-19T10:45:28.334Z,9.280095
2023-01-19T10:46:28.269Z,9.280107
2023-01-19T10:47:28.306Z,9.279932
2023-01-19T10:48:28.260Z,9.279964
2023-01-19T10:49:28.245Z,9.280038
2023-01-19T10:50:28.195Z,9.280142
2023-01-19T10:51:28.190Z,9.279946
2023-01-19T10:52:28.162Z,9.279971
2023-01-19T10:53:28.140Z,9.280014
2023-01-19T10:54:28.149Z,9.280021
2023-01-19T10:55:28.103Z,9.279977
2023-01-19T10:56:28.131Z,9.279925
2023-01-19T10:57:28.076Z,9.280215
2023-01-19T10:58:28.045Z,9.280170
2023-01-19T10:59:28.065Z,9.280098
2023-01-19T11:00:28.069Z,9.280064
2023-01-19T11:01:28.162Z,9.280096
2023-01-19T11:02:28.224Z,9.279954
2023-01-19T11:03:28.051Z,9.280030
2023-01-19T11:04:28.065Z,9.280002
2023-01-19T11:05:27.945Z,9.279963
2023-01-19T11:06:27.905Z,9.280098
2023-01-19T11:07:27.892Z,9.280106
2023-01-19T11:08:27.869Z,9.279841
2023-01-19T11:09:27.879Z,9.279892
2023-01-19T11:10:27.836Z,9.280102
2023-01-19T11:11:27.813Z,9.279975
2023-01-19T11:12:27.797Z,9.280002
2023-01-19T11:13:27.780Z,9.279951
2023-01-19T11:14:27.785Z,9.280088
2023-01-19T11:15:27.761Z,9.280033
2023-01-19T11:16:27.774Z,9.279753
2023-01-19T11:17:27.712Z,9.279809
2023-01-19T11:18:27.712Z,9.279822
2023-01-19T11:19:27.702Z,9.279886
2023-01-19T11:20:27.656Z,9.279906
2023-01-19T11:21:27.646Z,9.280025
2023-01-19T11:22:27.621Z,9.279989
2023-01-19T11:23:27.603Z,9.279951
2023-01-19T11:24:27.606Z,9.279861
2023-01-19T11:25:27.595Z,9.279902
2023-01-19T11:26:27.544Z,9.280008
2023-01-19T11:27:27.527Z,9.279989
2023-01-19T11:28:27.510Z,9.279903
2023-01-19T11:29:27.502Z,9.279880
2023-01-19T11:30:27.505Z,9.279982
2023-01-19T11:31:27.578Z,9.279943
2023-01-19T11:32:27.431Z,9.279934
2023-01-19T11:33:27.432Z,9.279923
2023-01-19T11:34:27.425Z,9.279890
2023-01-19T11:35:27.389Z,9.279876
2023-01-19T11:36:27.494Z,9.279914
2023-01-19T11:37:27.352Z,9.279850
2023-01-19T11:38:27.353Z,9.279867
2023-01-19T11:39:27.341Z,9.279945
2023-01-19T11:40:27.298Z,9.279865
2023-01-19T11:41:27.267Z,9.279911
2023-01-19T11:42:27.248Z,9.279941
2023-01-19T11:43:31.872Z,9.279902
2023-01-19T11:44:28.243Z,9.279897